sensor_id;sensor_type;location;lat;lon;timestamp;pressure;altitude;pressure_sealevel;temperature;humidity
23016;BME280;11674;52.428;13.584;2023-04-01T00:01:39;99412.13;;;11.28;85.78
23016;BME280;11674;52.428;13.584;2023-04-01T00:06:46;99408.72;;;11.31;85.30
23016;BME280;11674;52.428;13.584;2023-04-01T00:11:53;99401.03;;;11.28;85.40
23016;BME280;11674;52.428;13.584;2023-04-01T00:17:00;99399.09;;;11.28;85.45
23016;BME280;11674;52.428;13.584;2023-04-01T00:22:07;99412.13;;;11.28;85.54
23016;BME280;11674;52.428;13.584;2023-04-01T00:27:15;99394.19;;;11.25;85.53
23016;BME280;11674;52.428;13.584;2023-04-01T00:32:22;99404.13;;;11.26;85.27
23016;BME280;11674;52.428;13.584;2023-04-01T00:37:30;99402.84;;;11.24;85.60
23016;BME280;11674;52.428;13.584;2023-04-01T00:42:36;99405.44;;;11.20;85.37
23016;BME280;11674;52.428;13.584;2023-04-01T00:47:43;99403.16;;;11.22;85.50
23016;BME280;11674;52.428;13.584;2023-04-01T00:52:51;99406.13;;;11.26;85.42
23016;BME280;11674;52.428;13.584;2023-04-01T00:57:59;99405.59;;;11.24;85.19
23016;BME280;11674;52.428;13.584;2023-04-01T01:03:08;99412.31;;;11.23;85.12
23016;BME280;11674;52.428;13.584;2023-04-01T01:08:26;99412.47;;;11.18;85.52
23016;BME280;11674;52.428;13.584;2023-04-01T01:24:28;99407.41;;;11.11;86.04
23016;BME280;11674;52.428;13.584;2023-04-01T01:30:00;99408.25;;;11.12;85.76
23016;BME280;11674;52.428;13.584;2023-04-01T01:40:46;99409.72;;;11.09;85.76
23016;BME280;11674;52.428;13.584;2023-04-01T01:45:55;99418.88;;;11.10;85.91
23016;BME280;11674;52.428;13.584;2023-04-01T01:51:06;99416.72;;;11.07;86.16
23016;BME280;11674;52.428;13.584;2023-04-01T01:56:12;99424.22;;;11.06;86.32
23016;BME280;11674;52.428;13.584;2023-04-01T02:01:23;99420.97;;;11.13;86.19
23016;BME280;11674;52.428;13.584;2023-04-01T02:06:39;99418.19;;;11.13;86.35
23016;BME280;11674;52.428;13.584;2023-04-01T02:11:52;99419.00;;;11.22;86.41
23016;BME280;11674;52.428;13.584;2023-04-01T02:17:02;99428.47;;;11.21;86.02
23016;BME280;11674;52.428;13.584;2023-04-01T02:22:14;99422.59;;;11.22;86.14
23016;BME280;11674;52.428;13.584;2023-04-01T02:27:24;99427.31;;;11.30;86.47
23016;BME280;11674;52.428;13.584;2023-04-01T02:32:32;99419.97;;;11.34;85.92
23016;BME280;11674;52.428;13.584;2023-04-01T02:37:40;99431.25;;;11.38;85.92
23016;BME280;11674;52.428;13.584;2023-04-01T02:42:48;99427.47;;;11.34;85.78
23016;BME280;11674;52.428;13.584;2023-04-01T02:47:55;99438.44;;;11.30;85.93
23016;BME280;11674;52.428;13.584;2023-04-01T02:53:02;99437.94;;;11.28;86.12
23016;BME280;11674;52.428;13.584;2023-04-01T02:58:09;99441.38;;;11.34;86.08
23016;BME280;11674;52.428;13.584;2023-04-01T03:03:16;99445.13;;;11.38;85.85
23016;BME280;11674;52.428;13.584;2023-04-01T03:08:23;99447.72;;;11.43;86.06
23016;BME280;11674;52.428;13.584;2023-04-01T03:13:30;99448.22;;;11.45;85.56
23016;BME280;11674;52.428;13.584;2023-04-01T03:18:38;99450.00;;;11.49;85.91
23016;BME280;11674;52.428;13.584;2023-04-01T03:23:44;99450.16;;;11.53;85.44
23016;BME280;11674;52.428;13.584;2023-04-01T03:28:52;99459.66;;;11.52;85.70
23016;BME280;11674;52.428;13.584;2023-04-01T03:33:58;99464.53;;;11.55;85.47
23016;BME280;11674;52.428;13.584;2023-04-01T03:39:05;99459.28;;;11.53;85.28
23016;BME280;11674;52.428;13.584;2023-04-01T03:44:15;99465.22;;;11.52;85.55
23016;BME280;11674;52.428;13.584;2023-04-01T03:49:26;99467.78;;;11.57;85.39
23016;BME280;11674;52.428;13.584;2023-04-01T03:54:33;99472.53;;;11.56;85.32
23016;BME280;11674;52.428;13.584;2023-04-01T03:59:41;99480.41;;;11.63;85.40
23016;BME280;11674;52.428;13.584;2023-04-01T04:04:47;99483.81;;;11.68;85.44
23016;BME280;11674;52.428;13.584;2023-04-01T04:09:55;99481.69;;;11.74;85.46
23016;BME280;11674;52.428;13.584;2023-04-01T04:15:01;99494.59;;;11.78;85.30
23016;BME280;11674;52.428;13.584;2023-04-01T04:20:09;99485.63;;;11.81;85.13
23016;BME280;11674;52.428;13.584;2023-04-01T04:25:16;99501.94;;;11.83;85.02
23016;BME280;11674;52.428;13.584;2023-04-01T04:30:23;99489.69;;;11.84;85.28
23016;BME280;11674;52.428;13.584;2023-04-01T04:35:29;99503.06;;;11.82;84.76
23016;BME280;11674;52.428;13.584;2023-04-01T04:40:37;99502.28;;;11.81;85.11
23016;BME280;11674;52.428;13.584;2023-04-01T04:45:45;99505.06;;;11.81;85.12
23016;BME280;11674;52.428;13.584;2023-04-01T04:50:52;99509.31;;;11.79;85.09
23016;BME280;11674;52.428;13.584;2023-04-01T04:56:00;99517.66;;;11.79;85.16
23016;BME280;11674;52.428;13.584;2023-04-01T05:01:14;99516.97;;;11.82;85.19
23016;BME280;11674;52.428;13.584;2023-04-01T05:06:21;99514.34;;;11.85;85.12
23016;BME280;11674;52.428;13.584;2023-04-01T05:11:28;99519.75;;;11.82;84.67
23016;BME280;11674;52.428;13.584;2023-04-01T05:16:36;99519.91;;;11.77;85.01
23016;BME280;11674;52.428;13.584;2023-04-01T05:21:43;99522.84;;;11.80;85.04
23016;BME280;11674;52.428;13.584;2023-04-01T05:26:59;99528.75;;;11.87;85.25
23016;BME280;11674;52.428;13.584;2023-04-01T05:32:14;99536.09;;;11.92;85.01
23016;BME280;11674;52.428;13.584;2023-04-01T05:37:21;99531.81;;;11.94;85.00
23016;BME280;11674;52.428;13.584;2023-04-01T05:42:29;99533.59;;;11.99;84.92
23016;BME280;11674;52.428;13.584;2023-04-01T05:47:35;99535.06;;;12.05;84.86
23016;BME280;11674;52.428;13.584;2023-04-01T05:52:42;99548.00;;;12.09;84.81
23016;BME280;11674;52.428;13.584;2023-04-01T05:57:49;99548.59;;;12.15;85.02
23016;BME280;11674;52.428;13.584;2023-04-01T06:02:58;99546.16;;;12.22;84.81
23016;BME280;11674;52.428;13.584;2023-04-01T06:08:11;99557.44;;;12.25;84.97
23016;BME280;11674;52.428;13.584;2023-04-01T06:13:35;99561.84;;;12.26;84.83
23016;BME280;11674;52.428;13.584;2023-04-01T06:40:45;99583.94;;;12.23;85.10
23016;BME280;11674;52.428;13.584;2023-04-01T06:46:11;99581.78;;;12.20;84.99
23016;BME280;11674;52.428;13.584;2023-04-01T06:52:24;99589.19;;;12.16;85.12
23016;BME280;11674;52.428;13.584;2023-04-01T06:57:57;99586.88;;;12.26;85.34
23016;BME280;11674;52.428;13.584;2023-04-01T07:08:25;99601.56;;;12.35;85.06
23016;BME280;11674;52.428;13.584;2023-04-01T07:13:39;99600.59;;;12.31;84.91
23016;BME280;11674;52.428;13.584;2023-04-01T07:19:01;99597.84;;;12.23;85.02
23016;BME280;11674;52.428;13.584;2023-04-01T07:24:52;99607.16;;;12.27;85.18
23016;BME280;11674;52.428;13.584;2023-04-01T07:30:00;99622.69;;;12.28;85.31
23016;BME280;11674;52.428;13.584;2023-04-01T07:35:45;99622.16;;;12.34;85.60
23016;BME280;11674;52.428;13.584;2023-04-01T07:41:04;99621.84;;;12.36;85.47
23016;BME280;11674;52.428;13.584;2023-04-01T07:51:46;99623.28;;;12.59;85.79
23016;BME280;11674;52.428;13.584;2023-04-01T07:57:18;99617.69;;;12.67;85.49
23016;BME280;11674;52.428;13.584;2023-04-01T08:24:45;99642.19;;;13.20;85.86
23016;BME280;11674;52.428;13.584;2023-04-01T08:30:16;99641.19;;;13.24;85.61
23016;BME280;11674;52.428;13.584;2023-04-01T08:40:39;99654.34;;;13.15;85.94
23016;BME280;11674;52.428;13.584;2023-04-01T08:46:38;99653.53;;;13.15;85.61
23016;BME280;11674;52.428;13.584;2023-04-01T09:19:28;99678.72;;;12.72;85.11
23016;BME280;11674;52.428;13.584;2023-04-01T09:24:46;99695.41;;;12.55;84.40
23016;BME280;11674;52.428;13.584;2023-04-01T09:30:18;99697.75;;;12.28;84.39
23016;BME280;11674;52.428;13.584;2023-04-01T10:08:59;99743.72;;;12.25;85.40
23016;BME280;11674;52.428;13.584;2023-04-01T10:35:59;99762.03;;;12.09;85.31
23016;BME280;11674;52.428;13.584;2023-04-01T10:47:55;99771.28;;;11.88;84.82
23016;BME280;11674;52.428;13.584;2023-04-01T11:15:40;99788.47;;;11.90;85.30
23016;BME280;11674;52.428;13.584;2023-04-01T11:21:13;99788.59;;;11.76;84.60
23016;BME280;11674;52.428;13.584;2023-04-01T11:37:28;99812.44;;;11.69;85.27
23016;BME280;11674;52.428;13.584;2023-04-01T12:05:37;99850.28;;;11.04;84.34
23016;BME280;11674;52.428;13.584;2023-04-01T12:11:04;99856.44;;;11.01;85.04
23016;BME280;11674;52.428;13.584;2023-04-01T12:21:36;99862.81;;;11.01;84.76
23016;BME280;11674;52.428;13.584;2023-04-01T12:26:53;99872.66;;;11.07;85.52
23016;BME280;11674;52.428;13.584;2023-04-01T12:32:38;99876.47;;;10.98;84.98
23016;BME280;11674;52.428;13.584;2023-04-01T13:00:09;99901.44;;;10.76;84.90
23016;BME280;11674;52.428;13.584;2023-04-01T13:10:41;99910.34;;;10.51;85.11
23016;BME280;11674;52.428;13.584;2023-04-01T13:15:52;99927.69;;;10.56;85.06
23016;BME280;11674;52.428;13.584;2023-04-01T13:21:28;99926.34;;;10.54;85.21
23016;BME280;11674;52.428;13.584;2023-04-01T13:27:06;99935.53;;;10.41;84.71
23016;BME280;11674;52.428;13.584;2023-04-01T13:32:51;99939.53;;;10.35;84.91
23016;BME280;11674;52.428;13.584;2023-04-01T13:38:05;99951.22;;;10.32;85.18
23016;BME280;11674;52.428;13.584;2023-04-01T13:43:39;99951.63;;;10.39;85.19
23016;BME280;11674;52.428;13.584;2023-04-01T13:54:25;99965.19;;;10.40;84.85
23016;BME280;11674;52.428;13.584;2023-04-01T13:59:50;99964.38;;;10.40;85.33
23016;BME280;11674;52.428;13.584;2023-04-01T14:21:41;100000.91;;;10.69;84.73
23016;BME280;11674;52.428;13.584;2023-04-01T14:42:59;100017.75;;;10.32;84.74
23016;BME280;11674;52.428;13.584;2023-04-01T14:53:34;100045.94;;;10.07;84.44
23016;BME280;11674;52.428;13.584;2023-04-01T14:58:50;100043.03;;;9.98;84.63
23016;BME280;11674;52.428;13.584;2023-04-01T15:04:12;100062.06;;;9.86;84.77
23016;BME280;11674;52.428;13.584;2023-04-01T15:20:22;100070.34;;;9.73;84.67
23016;BME280;11674;52.428;13.584;2023-04-01T15:25:31;100074.75;;;9.74;85.20
23016;BME280;11674;52.428;13.584;2023-04-01T15:41:52;100095.88;;;9.51;84.75
23016;BME280;11674;52.428;13.584;2023-04-01T15:52:44;100120.63;;;9.43;84.93
23016;BME280;11674;52.428;13.584;2023-04-01T16:08:58;100139.84;;;9.34;85.02
23016;BME280;11674;52.428;13.584;2023-04-01T16:24:48;100156.59;;;9.24;84.66
23016;BME280;11674;52.428;13.584;2023-04-01T16:30:26;100163.03;;;9.20;84.84
23016;BME280;11674;52.428;13.584;2023-04-01T16:41:24;100179.47;;;9.11;84.70
23016;BME280;11674;52.428;13.584;2023-04-01T17:02:20;100224.75;;;8.68;84.40
23016;BME280;11674;52.428;13.584;2023-04-01T17:07:43;100230.88;;;8.60;84.29
23016;BME280;11674;52.428;13.584;2023-04-01T17:13:10;100238.13;;;8.56;84.74
23016;BME280;11674;52.428;13.584;2023-04-01T17:24:04;100269.38;;;8.52;84.64
23016;BME280;11674;52.428;13.584;2023-04-01T17:29:24;100282.72;;;8.45;84.50
23016;BME280;11674;52.428;13.584;2023-04-01T17:50:43;100313.53;;;8.18;84.52
23016;BME280;11674;52.428;13.584;2023-04-01T18:01:26;100333.25;;;8.02;84.18
23016;BME280;11674;52.428;13.584;2023-04-01T18:07:02;100344.06;;;7.98;84.58
23016;BME280;11674;52.428;13.584;2023-04-01T18:23:43;100377.50;;;7.87;84.49
23016;BME280;11674;52.428;13.584;2023-04-01T18:28:50;100383.91;;;7.77;84.43
23016;BME280;11674;52.428;13.584;2023-04-01T18:34:26;100403.78;;;7.69;84.31
23016;BME280;11674;52.428;13.584;2023-04-01T18:39:46;100415.69;;;7.65;84.43
23016;BME280;11674;52.428;13.584;2023-04-01T18:45:10;100426.19;;;7.63;84.51
23016;BME280;11674;52.428;13.584;2023-04-01T18:50:37;100432.53;;;7.53;84.18
23016;BME280;11674;52.428;13.584;2023-04-01T18:55:52;100451.31;;;7.41;84.17
23016;BME280;11674;52.428;13.584;2023-04-01T19:01:10;100460.44;;;7.37;84.24
23016;BME280;11674;52.428;13.584;2023-04-01T19:06:29;100464.00;;;7.32;84.22
23016;BME280;11674;52.428;13.584;2023-04-01T19:11:50;100469.25;;;7.24;84.07
23016;BME280;11674;52.428;13.584;2023-04-01T19:23:05;100485.53;;;7.20;84.35
23016;BME280;11674;52.428;13.584;2023-04-01T19:34:22;100505.38;;;7.07;84.23
23016;BME280;11674;52.428;13.584;2023-04-01T19:44:57;100521.34;;;7.00;84.24
23016;BME280;11674;52.428;13.584;2023-04-01T19:55:38;100538.19;;;6.94;84.13
23016;BME280;11674;52.428;13.584;2023-04-01T20:00:50;100547.53;;;6.93;84.24
23016;BME280;11674;52.428;13.584;2023-04-01T20:21:58;100592.09;;;6.65;84.09
23016;BME280;11674;52.428;13.584;2023-04-01T20:54:43;100643.47;;;6.39;83.86
23016;BME280;11674;52.428;13.584;2023-04-01T20:59:58;100656.38;;;6.34;83.74
23016;BME280;11674;52.428;13.584;2023-04-01T21:10:41;100673.13;;;6.22;83.76
23016;BME280;11674;52.428;13.584;2023-04-01T21:21:37;100687.59;;;6.08;83.92
23016;BME280;11674;52.428;13.584;2023-04-01T21:27:11;100701.31;;;6.03;84.10
23016;BME280;11674;52.428;13.584;2023-04-01T21:32:26;100700.44;;;5.97;83.79
23016;BME280;11674;52.428;13.584;2023-04-01T21:59:53;100746.31;;;5.87;84.09
23016;BME280;11674;52.428;13.584;2023-04-01T22:05:16;100750.41;;;5.84;83.84
23016;BME280;11674;52.428;13.584;2023-04-01T22:16:16;100766.84;;;5.79;83.78
23016;BME280;11674;52.428;13.584;2023-04-01T22:21:35;100783.34;;;5.79;83.92
23016;BME280;11674;52.428;13.584;2023-04-01T22:26:50;100789.69;;;5.80;83.85
23016;BME280;11674;52.428;13.584;2023-04-01T22:32:23;100777.59;;;5.81;83.91
23016;BME280;11674;52.428;13.584;2023-04-01T22:37:47;100794.38;;;5.79;83.97
23016;BME280;11674;52.428;13.584;2023-04-01T22:43:06;100806.44;;;5.78;83.99
23016;BME280;11674;52.428;13.584;2023-04-01T22:59:19;100828.34;;;5.68;83.63
23016;BME280;11674;52.428;13.584;2023-04-01T23:04:32;100835.53;;;5.69;83.78
23016;BME280;11674;52.428;13.584;2023-04-01T23:09:40;100846.28;;;5.71;83.66
23016;BME280;11674;52.428;13.584;2023-04-01T23:14:56;100847.09;;;5.71;83.69
23016;BME280;11674;52.428;13.584;2023-04-01T23:25:54;100867.94;;;5.67;83.46
23016;BME280;11674;52.428;13.584;2023-04-01T23:31:02;100867.44;;;5.70;83.79
23016;BME280;11674;52.428;13.584;2023-04-01T23:36:14;100870.44;;;5.69;83.44
23016;BME280;11674;52.428;13.584;2023-04-01T23:41:25;100885.53;;;5.66;83.55
23016;BME280;11674;52.428;13.584;2023-04-01T23:46:35;100896.53;;;5.66;83.50
23016;BME280;11674;52.428;13.584;2023-04-01T23:51:52;100899.84;;;5.63;83.41
23016;BME280;11674;52.428;13.584;2023-04-01T23:57:04;100912.75;;;5.63;83.31
